sensor_id;sensor_type;location;lat;lon;timestamp;temperature;humidity
10419;DHT22;5256;48.728;9.140;2024-02-14T00:00:42;0.40;99.90
10419;DHT22;5256;48.728;9.140;2024-02-14T00:03:09;0.40;99.90
10419;DHT22;5256;48.728;9.140;2024-02-14T00:05:34;0.50;99.90
10419;DHT22;5256;48.728;9.140;2024-02-14T00:08:00;0.60;99.90
10419;DHT22;5256;48.728;9.140;2024-02-14T00:10:25;0.70;99.90
10419;DHT22;5256;48.728;9.140;2024-02-14T00:12:51;0.80;99.90
10419;DHT22;5256;48.728;9.140;2024-02-14T00:15:17;0.90;99.90
10419;DHT22;5256;48.728;9.140;2024-02-14T00:17:43;0.90;99.90
10419;DHT22;5256;48.728;9.140;2024-02-14T00:20:09;0.90;99.90
10419;DHT22;5256;48.728;9.140;2024-02-14T00:22:38;1.00;99.90
10419;DHT22;5256;48.728;9.140;2024-02-14T00:25:03;1.00;99.90
10419;DHT22;5256;48.728;9.140;2024-02-14T00:27:30;1.00;99.90
10419;DHT22;5256;48.728;9.140;2024-02-14T00:29:55;1.00;99.90
10419;DHT22;5256;48.728;9.140;2024-02-14T00:32:21;1.10;99.90
10419;DHT22;5256;48.728;9.140;2024-02-14T00:34:47;1.10;99.90
10419;DHT22;5256;48.728;9.140;2024-02-14T00:37:13;1.20;99.90
10419;DHT22;5256;48.728;9.140;2024-02-14T00:39:39;1.30;99.90
10419;DHT22;5256;48.728;9.140;2024-02-14T00:42:04;1.40;99.90
10419;DHT22;5256;48.728;9.140;2024-02-14T00:44:31;1.40;99.90
10419;DHT22;5256;48.728;9.140;2024-02-14T00:46:57;1.60;99.90
10419;DHT22;5256;48.728;9.140;2024-02-14T00:49:25;1.60;99.90
10419;DHT22;5256;48.728;9.140;2024-02-14T00:51:51;1.70;99.90
10419;DHT22;5256;48.728;9.140;2024-02-14T00:54:16;1.80;99.90
10419;DHT22;5256;48.728;9.140;2024-02-14T00:56:42;1.90;99.90
10419;DHT22;5256;48.728;9.140;2024-02-14T00:59:07;2.00;99.90
10419;DHT22;5256;48.728;9.140;2024-02-14T01:01:33;2.10;99.90
10419;DHT22;5256;48.728;9.140;2024-02-14T01:03:59;2.20;99.90
10419;DHT22;5256;48.728;9.140;2024-02-14T01:06:24;2.20;99.90
10419;DHT22;5256;48.728;9.140;2024-02-14T01:08:50;2.30;99.90
10419;DHT22;5256;48.728;9.140;2024-02-14T01:11:15;2.30;99.90
10419;DHT22;5256;48.728;9.140;2024-02-14T01:13:41;2.30;99.90
10419;DHT22;5256;48.728;9.140;2024-02-14T01:16:07;2.40;99.90
10419;DHT22;5256;48.728;9.140;2024-02-14T01:18:33;2.50;99.90
10419;DHT22;5256;48.728;9.140;2024-02-14T01:20:58;2.40;99.90
10419;DHT22;5256;48.728;9.140;2024-02-14T01:23:26;2.40;99.90
10419;DHT22;5256;48.728;9.140;2024-02-14T01:25:51;2.40;99.90
10419;DHT22;5256;48.728;9.140;2024-02-14T01:28:20;2.40;99.90
10419;DHT22;5256;48.728;9.140;2024-02-14T01:30:45;2.50;99.90
10419;DHT22;5256;48.728;9.140;2024-02-14T01:33:11;2.40;99.90
10419;DHT22;5256;48.728;9.140;2024-02-14T01:35:36;2.50;99.90
10419;DHT22;5256;48.728;9.140;2024-02-14T01:38:02;2.60;99.90
10419;DHT22;5256;48.728;9.140;2024-02-14T01:40:31;2.60;99.90
10419;DHT22;5256;48.728;9.140;2024-02-14T01:42:56;2.60;99.90
10419;DHT22;5256;48.728;9.140;2024-02-14T01:45:22;2.70;99.90
10419;DHT22;5256;48.728;9.140;2024-02-14T01:47:48;2.70;99.90
10419;DHT22;5256;48.728;9.140;2024-02-14T01:50:15;2.70;99.90
10419;DHT22;5256;48.728;9.140;2024-02-14T01:52:41;2.80;99.90
10419;DHT22;5256;48.728;9.140;2024-02-14T01:55:09;2.80;99.90
10419;DHT22;5256;48.728;9.140;2024-02-14T01:57:38;2.80;99.90
10419;DHT22;5256;48.728;9.140;2024-02-14T02:00:05;2.90;99.90
10419;DHT22;5256;48.728;9.140;2024-02-14T02:02:34;2.90;99.90
10419;DHT22;5256;48.728;9.140;2024-02-14T02:05:02;2.90;99.90
10419;DHT22;5256;48.728;9.140;2024-02-14T02:07:27;3.00;99.90
10419;DHT22;5256;48.728;9.140;2024-02-14T02:09:53;2.90;99.90
10419;DHT22;5256;48.728;9.140;2024-02-14T02:12:18;2.90;99.90
10419;DHT22;5256;48.728;9.140;2024-02-14T02:14:44;2.90;99.90
10419;DHT22;5256;48.728;9.140;2024-02-14T02:17:09;3.00;99.90
10419;DHT22;5256;48.728;9.140;2024-02-14T02:19:36;3.00;99.90
10419;DHT22;5256;48.728;9.140;2024-02-14T02:22:02;3.00;99.90
10419;DHT22;5256;48.728;9.140;2024-02-14T02:24:29;3.00;99.90
10419;DHT22;5256;48.728;9.140;2024-02-14T02:26:54;3.00;99.90
10419;DHT22;5256;48.728;9.140;2024-02-14T02:29:22;3.00;99.90
10419;DHT22;5256;48.728;9.140;2024-02-14T02:31:47;3.10;99.90
10419;DHT22;5256;48.728;9.140;2024-02-14T02:34:13;3.10;99.90
10419;DHT22;5256;48.728;9.140;2024-02-14T02:36:40;3.10;99.90
10419;DHT22;5256;48.728;9.140;2024-02-14T02:39:06;3.10;99.90
10419;DHT22;5256;48.728;9.140;2024-02-14T02:41:31;3.00;99.90
10419;DHT22;5256;48.728;9.140;2024-02-14T02:43:57;2.90;99.90
10419;DHT22;5256;48.728;9.140;2024-02-14T02:46:23;2.90;99.90
10419;DHT22;5256;48.728;9.140;2024-02-14T02:48:49;2.80;99.90
10419;DHT22;5256;48.728;9.140;2024-02-14T02:51:17;2.70;99.90
10419;DHT22;5256;48.728;9.140;2024-02-14T02:53:43;2.80;99.90
10419;DHT22;5256;48.728;9.140;2024-02-14T02:56:09;2.80;99.90
10419;DHT22;5256;48.728;9.140;2024-02-14T02:58:34;2.70;99.90
10419;DHT22;5256;48.728;9.140;2024-02-14T03:01:00;2.80;99.90
10419;DHT22;5256;48.728;9.140;2024-02-14T03:03:26;2.80;99.90
10419;DHT22;5256;48.728;9.140;2024-02-14T03:05:53;2.80;99.90
10419;DHT22;5256;48.728;9.140;2024-02-14T03:08:20;2.90;99.90
10419;DHT22;5256;48.728;9.140;2024-02-14T03:10:47;2.90;99.90
10419;DHT22;5256;48.728;9.140;2024-02-14T03:13:12;3.00;99.90
10419;DHT22;5256;48.728;9.140;2024-02-14T03:15:38;3.00;99.90
10419;DHT22;5256;48.728;9.140;2024-02-14T03:18:04;2.90;99.90
10419;DHT22;5256;48.728;9.140;2024-02-14T03:20:35;2.90;99.90
10419;DHT22;5256;48.728;9.140;2024-02-14T03:23:01;2.90;99.90
10419;DHT22;5256;48.728;9.140;2024-02-14T03:25:29;2.80;99.90
10419;DHT22;5256;48.728;9.140;2024-02-14T03:27:54;2.70;99.90
10419;DHT22;5256;48.728;9.140;2024-02-14T03:30:22;2.80;99.90
10419;DHT22;5256;48.728;9.140;2024-02-14T03:32:49;2.70;99.90
10419;DHT22;5256;48.728;9.140;2024-02-14T03:35:15;2.60;99.90
10419;DHT22;5256;48.728;9.140;2024-02-14T03:37:42;2.50;99.90
10419;DHT22;5256;48.728;9.140;2024-02-14T03:40:08;2.40;99.90
10419;DHT22;5256;48.728;9.140;2024-02-14T03:42:35;2.40;99.90
10419;DHT22;5256;48.728;9.140;2024-02-14T03:45:00;2.40;99.90
10419;DHT22;5256;48.728;9.140;2024-02-14T03:47:31;2.30;99.90
10419;DHT22;5256;48.728;9.140;2024-02-14T03:49:58;2.30;99.90
10419;DHT22;5256;48.728;9.140;2024-02-14T03:52:24;2.30;99.90
10419;DHT22;5256;48.728;9.140;2024-02-14T03:54:50;2.30;99.90
10419;DHT22;5256;48.728;9.140;2024-02-14T03:57:16;2.40;99.90
10419;DHT22;5256;48.728;9.140;2024-02-14T03:59:43;2.40;99.90
10419;DHT22;5256;48.728;9.140;2024-02-14T04:02:09;2.40;99.90
10419;DHT22;5256;48.728;9.140;2024-02-14T04:04:36;2.50;99.90
10419;DHT22;5256;48.728;9.140;2024-02-14T04:07:03;2.50;99.90
10419;DHT22;5256;48.728;9.140;2024-02-14T04:09:28;2.60;99.90
10419;DHT22;5256;48.728;9.140;2024-02-14T04:11:54;2.60;99.90
10419;DHT22;5256;48.728;9.140;2024-02-14T04:14:20;2.70;99.90
10419;DHT22;5256;48.728;9.140;2024-02-14T04:16:46;2.70;99.90
10419;DHT22;5256;48.728;9.140;2024-02-14T04:19:11;2.70;99.90
10419;DHT22;5256;48.728;9.140;2024-02-14T04:21:38;2.70;99.90
10419;DHT22;5256;48.728;9.140;2024-02-14T04:24:04;2.70;99.90
10419;DHT22;5256;48.728;9.140;2024-02-14T04:26:29;2.70;99.90
10419;DHT22;5256;48.728;9.140;2024-02-14T04:28:55;2.60;99.90
10419;DHT22;5256;48.728;9.140;2024-02-14T04:31:21;2.70;99.90
10419;DHT22;5256;48.728;9.140;2024-02-14T04:33:47;2.70;99.90
10419;DHT22;5256;48.728;9.140;2024-02-14T04:36:18;2.70;99.90
10419;DHT22;5256;48.728;9.140;2024-02-14T04:38:44;2.70;99.90
10419;DHT22;5256;48.728;9.140;2024-02-14T04:41:10;2.70;99.90
10419;DHT22;5256;48.728;9.140;2024-02-14T04:43:36;2.60;99.90
10419;DHT22;5256;48.728;9.140;2024-02-14T04:46:01;2.70;99.90
10419;DHT22;5256;48.728;9.140;2024-02-14T04:48:27;2.70;99.90
10419;DHT22;5256;48.728;9.140;2024-02-14T04:50:53;2.80;99.90
10419;DHT22;5256;48.728;9.140;2024-02-14T04:53:18;2.90;99.90
10419;DHT22;5256;48.728;9.140;2024-02-14T04:55:45;3.00;99.90
10419;DHT22;5256;48.728;9.140;2024-02-14T04:58:10;3.00;99.90
10419;DHT22;5256;48.728;9.140;2024-02-14T05:00:36;3.10;99.90
10419;DHT22;5256;48.728;9.140;2024-02-14T05:03:01;3.20;99.90
10419;DHT22;5256;48.728;9.140;2024-02-14T05:05:27;3.20;99.90
10419;DHT22;5256;48.728;9.140;2024-02-14T05:07:53;3.30;99.90
10419;DHT22;5256;48.728;9.140;2024-02-14T05:10:19;3.40;99.90
10419;DHT22;5256;48.728;9.140;2024-02-14T05:12:44;3.60;99.90
10419;DHT22;5256;48.728;9.140;2024-02-14T05:15:10;3.70;99.90
10419;DHT22;5256;48.728;9.140;2024-02-14T05:17:37;3.70;99.90
10419;DHT22;5256;48.728;9.140;2024-02-14T05:20:05;3.70;99.90
10419;DHT22;5256;48.728;9.140;2024-02-14T05:22:35;3.70;99.90
10419;DHT22;5256;48.728;9.140;2024-02-14T05:25:01;3.70;99.90
10419;DHT22;5256;48.728;9.140;2024-02-14T05:27:26;3.70;99.90
10419;DHT22;5256;48.728;9.140;2024-02-14T05:29:52;3.80;99.90
10419;DHT22;5256;48.728;9.140;2024-02-14T05:32:17;3.80;99.90
10419;DHT22;5256;48.728;9.140;2024-02-14T05:34:43;3.80;99.90
10419;DHT22;5256;48.728;9.140;2024-02-14T05:37:09;3.80;99.90
10419;DHT22;5256;48.728;9.140;2024-02-14T05:39:34;3.90;99.90
10419;DHT22;5256;48.728;9.140;2024-02-14T05:42:00;3.90;99.90
10419;DHT22;5256;48.728;9.140;2024-02-14T05:44:26;4.00;99.90
10419;DHT22;5256;48.728;9.140;2024-02-14T05:46:52;4.00;99.90
10419;DHT22;5256;48.728;9.140;2024-02-14T05:49:18;4.00;99.90
10419;DHT22;5256;48.728;9.140;2024-02-14T05:51:44;4.10;99.90
10419;DHT22;5256;48.728;9.140;2024-02-14T05:54:09;4.00;99.90
10419;DHT22;5256;48.728;9.140;2024-02-14T05:56:35;4.00;99.90
10419;DHT22;5256;48.728;9.140;2024-02-14T05:59:00;3.90;99.90
10419;DHT22;5256;48.728;9.140;2024-02-14T06:01:26;3.90;99.90
10419;DHT22;5256;48.728;9.140;2024-02-14T06:03:51;3.90;99.90
10419;DHT22;5256;48.728;9.140;2024-02-14T06:06:17;3.90;99.90
10419;DHT22;5256;48.728;9.140;2024-02-14T06:08:42;3.80;99.90
10419;DHT22;5256;48.728;9.140;2024-02-14T06:11:08;3.80;99.90
10419;DHT22;5256;48.728;9.140;2024-02-14T06:13:34;3.80;99.90
10419;DHT22;5256;48.728;9.140;2024-02-14T06:16:01;3.80;99.90
10419;DHT22;5256;48.728;9.140;2024-02-14T06:18:27;3.80;99.90
10419;DHT22;5256;48.728;9.140;2024-02-14T06:20:52;3.80;99.90
10419;DHT22;5256;48.728;9.140;2024-02-14T06:23:18;3.80;99.90
10419;DHT22;5256;48.728;9.140;2024-02-14T06:25:44;3.80;99.90
10419;DHT22;5256;48.728;9.140;2024-02-14T06:28:10;3.80;99.90
10419;DHT22;5256;48.728;9.140;2024-02-14T06:30:35;3.80;99.90
10419;DHT22;5256;48.728;9.140;2024-02-14T06:33:01;3.80;99.90
10419;DHT22;5256;48.728;9.140;2024-02-14T06:35:28;3.80;99.90
10419;DHT22;5256;48.728;9.140;2024-02-14T06:37:54;3.80;99.90
10419;DHT22;5256;48.728;9.140;2024-02-14T06:40:19;3.90;99.90
10419;DHT22;5256;48.728;9.140;2024-02-14T06:42:45;3.90;99.90
10419;DHT22;5256;48.728;9.140;2024-02-14T06:45:11;3.90;99.90
10419;DHT22;5256;48.728;9.140;2024-02-14T06:47:36;4.00;99.90
10419;DHT22;5256;48.728;9.140;2024-02-14T06:50:03;4.00;99.90
10419;DHT22;5256;48.728;9.140;2024-02-14T06:52:28;4.00;99.90
10419;DHT22;5256;48.728;9.140;2024-02-14T06:54:54;4.10;99.90
10419;DHT22;5256;48.728;9.140;2024-02-14T06:57:19;4.10;99.90
10419;DHT22;5256;48.728;9.140;2024-02-14T06:59:45;4.20;99.90
10419;DHT22;5256;48.728;9.140;2024-02-14T07:02:10;4.20;99.90
10419;DHT22;5256;48.728;9.140;2024-02-14T07:04:36;4.30;99.90
10419;DHT22;5256;48.728;9.140;2024-02-14T07:07:02;4.40;99.90
10419;DHT22;5256;48.728;9.140;2024-02-14T07:09:28;4.60;99.90
10419;DHT22;5256;48.728;9.140;2024-02-14T07:11:54;4.70;99.90
10419;DHT22;5256;48.728;9.140;2024-02-14T07:14:22;4.80;99.90
10419;DHT22;5256;48.728;9.140;2024-02-14T07:16:47;4.90;99.90
10419;DHT22;5256;48.728;9.140;2024-02-14T07:19:13;4.90;99.90
10419;DHT22;5256;48.728;9.140;2024-02-14T07:21:38;5.00;99.90
10419;DHT22;5256;48.728;9.140;2024-02-14T07:24:05;5.20;99.90
10419;DHT22;5256;48.728;9.140;2024-02-14T07:26:30;5.30;99.90
10419;DHT22;5256;48.728;9.140;2024-02-14T07:28:56;5.40;99.90
10419;DHT22;5256;48.728;9.140;2024-02-14T07:31:22;5.50;99.90
10419;DHT22;5256;48.728;9.140;2024-02-14T07:33:48;5.60;99.90
10419;DHT22;5256;48.728;9.140;2024-02-14T07:36:14;5.70;99.90
10419;DHT22;5256;48.728;9.140;2024-02-14T07:38:40;5.80;99.90
10419;DHT22;5256;48.728;9.140;2024-02-14T07:41:07;5.80;99.90
10419;DHT22;5256;48.728;9.140;2024-02-14T07:43:33;5.90;99.90
10419;DHT22;5256;48.728;9.140;2024-02-14T07:45:59;6.00;99.90
10419;DHT22;5256;48.728;9.140;2024-02-14T07:48:24;6.20;99.90
10419;DHT22;5256;48.728;9.140;2024-02-14T07:50:50;6.20;99.90
10419;DHT22;5256;48.728;9.140;2024-02-14T07:53:15;6.40;99.90
10419;DHT22;5256;48.728;9.140;2024-02-14T07:55:41;6.50;99.90
10419;DHT22;5256;48.728;9.140;2024-02-14T07:58:07;6.70;99.90
10419;DHT22;5256;48.728;9.140;2024-02-14T08:00:32;7.00;99.90
10419;DHT22;5256;48.728;9.140;2024-02-14T08:02:58;7.10;99.90
10419;DHT22;5256;48.728;9.140;2024-02-14T08:05:23;7.30;99.90
10419;DHT22;5256;48.728;9.140;2024-02-14T08:07:49;7.40;99.90
10419;DHT22;5256;48.728;9.140;2024-02-14T08:10:15;7.50;99.90
10419;DHT22;5256;48.728;9.140;2024-02-14T08:12:40;7.60;99.90
10419;DHT22;5256;48.728;9.140;2024-02-14T08:15:07;7.60;99.90
10419;DHT22;5256;48.728;9.140;2024-02-14T08:17:32;7.70;99.90
10419;DHT22;5256;48.728;9.140;2024-02-14T08:20:01;7.70;99.90
10419;DHT22;5256;48.728;9.140;2024-02-14T08:22:29;7.90;99.90
10419;DHT22;5256;48.728;9.140;2024-02-14T08:24:54;7.90;99.90
10419;DHT22;5256;48.728;9.140;2024-02-14T08:27:21;8.00;99.90
10419;DHT22;5256;48.728;9.140;2024-02-14T08:29:47;8.00;99.90
10419;DHT22;5256;48.728;9.140;2024-02-14T08:32:13;8.20;99.90
10419;DHT22;5256;48.728;9.140;2024-02-14T08:34:38;8.20;99.90
10419;DHT22;5256;48.728;9.140;2024-02-14T08:37:04;8.30;99.90
10419;DHT22;5256;48.728;9.140;2024-02-14T08:39:29;8.40;99.90
10419;DHT22;5256;48.728;9.140;2024-02-14T08:41:56;8.50;99.90
10419;DHT22;5256;48.728;9.140;2024-02-14T08:44:21;8.60;99.90
10419;DHT22;5256;48.728;9.140;2024-02-14T08:46:47;8.80;99.90
10419;DHT22;5256;48.728;9.140;2024-02-14T08:49:14;8.90;99.90
10419;DHT22;5256;48.728;9.140;2024-02-14T08:51:40;9.00;99.90
10419;DHT22;5256;48.728;9.140;2024-02-14T08:54:05;9.00;99.90
10419;DHT22;5256;48.728;9.140;2024-02-14T08:56:34;8.90;99.90
10419;DHT22;5256;48.728;9.140;2024-02-14T08:59:01;8.90;99.90
10419;DHT22;5256;48.728;9.140;2024-02-14T09:01:28;9.00;99.90
10419;DHT22;5256;48.728;9.140;2024-02-14T09:03:53;9.00;99.90
10419;DHT22;5256;48.728;9.140;2024-02-14T09:06:19;9.00;99.90
10419;DHT22;5256;48.728;9.140;2024-02-14T09:08:45;9.00;99.90
10419;DHT22;5256;48.728;9.140;2024-02-14T09:11:11;8.90;99.90
10419;DHT22;5256;48.728;9.140;2024-02-14T09:13:38;9.10;99.90
10419;DHT22;5256;48.728;9.140;2024-02-14T09:16:03;9.20;99.90
10419;DHT22;5256;48.728;9.140;2024-02-14T09:18:31;9.20;99.90
10419;DHT22;5256;48.728;9.140;2024-02-14T09:20:57;9.20;99.90
10419;DHT22;5256;48.728;9.140;2024-02-14T09:23:23;9.20;99.90
10419;DHT22;5256;48.728;9.140;2024-02-14T09:25:49;9.10;99.90
10419;DHT22;5256;48.728;9.140;2024-02-14T09:28:17;9.20;99.90
10419;DHT22;5256;48.728;9.140;2024-02-14T09:30:44;9.30;99.90
10419;DHT22;5256;48.728;9.140;2024-02-14T09:33:09;9.30;99.90
10419;DHT22;5256;48.728;9.140;2024-02-14T09:35:35;9.30;99.90
10419;DHT22;5256;48.728;9.140;2024-02-14T09:38:03;9.50;99.90
10419;DHT22;5256;48.728;9.140;2024-02-14T09:40:29;9.50;99.90
10419;DHT22;5256;48.728;9.140;2024-02-14T09:42:56;9.70;99.90
10419;DHT22;5256;48.728;9.140;2024-02-14T09:45:26;9.70;99.90
10419;DHT22;5256;48.728;9.140;2024-02-14T09:47:53;9.80;99.90
10419;DHT22;5256;48.728;9.140;2024-02-14T09:50:20;10.00;99.90
10419;DHT22;5256;48.728;9.140;2024-02-14T09:52:47;10.10;99.90
10419;DHT22;5256;48.728;9.140;2024-02-14T09:55:14;10.10;99.90
10419;DHT22;5256;48.728;9.140;2024-02-14T09:57:42;10.30;99.90
10419;DHT22;5256;48.728;9.140;2024-02-14T10:00:10;10.40;99.90
10419;DHT22;5256;48.728;9.140;2024-02-14T10:02:35;10.40;99.90
10419;DHT22;5256;48.728;9.140;2024-02-14T10:05:01;10.40;99.90
10419;DHT22;5256;48.728;9.140;2024-02-14T10:07:27;10.30;99.90
10419;DHT22;5256;48.728;9.140;2024-02-14T10:09:53;10.30;99.90
10419;DHT22;5256;48.728;9.140;2024-02-14T10:12:19;10.50;99.90
10419;DHT22;5256;48.728;9.140;2024-02-14T10:14:45;10.50;99.90
10419;DHT22;5256;48.728;9.140;2024-02-14T10:17:20;10.60;99.90
10419;DHT22;5256;48.728;9.140;2024-02-14T10:20:04;10.60;99.90
10419;DHT22;5256;48.728;9.140;2024-02-14T10:22:37;10.60;99.90
10419;DHT22;5256;48.728;9.140;2024-02-14T10:25:04;10.60;99.90
10419;DHT22;5256;48.728;9.140;2024-02-14T10:27:36;10.60;99.90
10419;DHT22;5256;48.728;9.140;2024-02-14T10:30:09;10.50;99.90
10419;DHT22;5256;48.728;9.140;2024-02-14T10:32:39;10.50;99.90
10419;DHT22;5256;48.728;9.140;2024-02-14T10:35:06;10.60;99.90
10419;DHT22;5256;48.728;9.140;2024-02-14T10:37:37;10.60;99.90
10419;DHT22;5256;48.728;9.140;2024-02-14T10:40:03;10.70;99.90
10419;DHT22;5256;48.728;9.140;2024-02-14T10:42:30;10.70;99.90
10419;DHT22;5256;48.728;9.140;2024-02-14T10:44:56;10.70;99.90
10419;DHT22;5256;48.728;9.140;2024-02-14T10:47:25;10.70;99.90
10419;DHT22;5256;48.728;9.140;2024-02-14T10:49:59;10.60;99.90
10419;DHT22;5256;48.728;9.140;2024-02-14T10:52:30;10.70;99.90
10419;DHT22;5256;48.728;9.140;2024-02-14T10:54:57;10.80;99.90
10419;DHT22;5256;48.728;9.140;2024-02-14T10:57:24;10.90;99.90
10419;DHT22;5256;48.728;9.140;2024-02-14T10:59:51;11.00;99.90
10419;DHT22;5256;48.728;9.140;2024-02-14T11:02:19;11.20;99.90
10419;DHT22;5256;48.728;9.140;2024-02-14T11:04:45;11.30;99.90
10419;DHT22;5256;48.728;9.140;2024-02-14T11:07:11;11.30;99.90
10419;DHT22;5256;48.728;9.140;2024-02-14T11:09:38;11.30;99.90
10419;DHT22;5256;48.728;9.140;2024-02-14T11:12:09;11.40;99.90
10419;DHT22;5256;48.728;9.140;2024-02-14T11:14:35;11.50;99.90
10419;DHT22;5256;48.728;9.140;2024-02-14T11:17:09;11.60;99.90
10419;DHT22;5256;48.728;9.140;2024-02-14T11:19:35;11.50;99.90
10419;DHT22;5256;48.728;9.140;2024-02-14T11:22:17;11.40;99.90
10419;DHT22;5256;48.728;9.140;2024-02-14T11:24:45;11.40;99.90
10419;DHT22;5256;48.728;9.140;2024-02-14T11:27:11;11.40;99.90
10419;DHT22;5256;48.728;9.140;2024-02-14T11:29:39;11.40;99.90
10419;DHT22;5256;48.728;9.140;2024-02-14T11:32:09;11.40;99.90
10419;DHT22;5256;48.728;9.140;2024-02-14T11:34:36;11.50;99.90
10419;DHT22;5256;48.728;9.140;2024-02-14T11:37:02;11.60;99.90
10419;DHT22;5256;48.728;9.140;2024-02-14T11:39:27;11.80;99.90
10419;DHT22;5256;48.728;9.140;2024-02-14T11:41:53;11.90;99.90
10419;DHT22;5256;48.728;9.140;2024-02-14T11:44:21;11.90;99.90
10419;DHT22;5256;48.728;9.140;2024-02-14T11:46:51;11.80;99.90
10419;DHT22;5256;48.728;9.140;2024-02-14T11:49:17;11.80;99.90
10419;DHT22;5256;48.728;9.140;2024-02-14T11:51:42;11.80;99.90
10419;DHT22;5256;48.728;9.140;2024-02-14T11:54:33;11.70;99.90
10419;DHT22;5256;48.728;9.140;2024-02-14T11:56:59;11.80;99.90
10419;DHT22;5256;48.728;9.140;2024-02-14T11:59:25;11.90;99.90
10419;DHT22;5256;48.728;9.140;2024-02-14T12:01:50;12.10;99.90
10419;DHT22;5256;48.728;9.140;2024-02-14T12:04:17;12.00;99.90
10419;DHT22;5256;48.728;9.140;2024-02-14T12:06:43;11.90;99.90
10419;DHT22;5256;48.728;9.140;2024-02-14T12:09:09;11.80;99.90
10419;DHT22;5256;48.728;9.140;2024-02-14T12:11:41;11.90;99.90
10419;DHT22;5256;48.728;9.140;2024-02-14T12:14:11;12.10;99.90
10419;DHT22;5256;48.728;9.140;2024-02-14T12:16:37;12.20;99.90
10419;DHT22;5256;48.728;9.140;2024-02-14T12:19:07;12.40;99.90
10419;DHT22;5256;48.728;9.140;2024-02-14T12:21:37;12.50;99.90
10419;DHT22;5256;48.728;9.140;2024-02-14T12:24:13;12.50;99.90
10419;DHT22;5256;48.728;9.140;2024-02-14T12:26:40;12.50;99.90
10419;DHT22;5256;48.728;9.140;2024-02-14T12:29:06;12.60;99.90
10419;DHT22;5256;48.728;9.140;2024-02-14T12:31:34;12.60;99.90
10419;DHT22;5256;48.728;9.140;2024-02-14T12:34:03;12.70;99.90
10419;DHT22;5256;48.728;9.140;2024-02-14T12:36:51;12.80;99.90
10419;DHT22;5256;48.728;9.140;2024-02-14T12:39:16;12.80;99.90
10419;DHT22;5256;48.728;9.140;2024-02-14T12:41:42;12.80;99.90
10419;DHT22;5256;48.728;9.140;2024-02-14T12:44:07;12.50;99.90
10419;DHT22;5256;48.728;9.140;2024-02-14T12:46:33;12.30;99.90
10419;DHT22;5256;48.728;9.140;2024-02-14T12:48:59;12.20;99.90
10419;DHT22;5256;48.728;9.140;2024-02-14T12:51:24;12.20;99.90
10419;DHT22;5256;48.728;9.140;2024-02-14T12:53:53;12.20;99.90
10419;DHT22;5256;48.728;9.140;2024-02-14T12:56:19;12.40;99.90
10419;DHT22;5256;48.728;9.140;2024-02-14T12:58:44;12.60;99.90
10419;DHT22;5256;48.728;9.140;2024-02-14T13:01:11;12.80;99.90
10419;DHT22;5256;48.728;9.140;2024-02-14T13:03:37;12.80;99.90
10419;DHT22;5256;48.728;9.140;2024-02-14T13:06:03;12.90;99.90
10419;DHT22;5256;48.728;9.140;2024-02-14T13:08:29;12.90;99.90
10419;DHT22;5256;48.728;9.140;2024-02-14T13:10:54;12.90;99.90
10419;DHT22;5256;48.728;9.140;2024-02-14T13:13:21;12.80;99.90
10419;DHT22;5256;48.728;9.140;2024-02-14T13:15:47;12.90;99.90
10419;DHT22;5256;48.728;9.140;2024-02-14T13:18:12;13.00;99.90
10419;DHT22;5256;48.728;9.140;2024-02-14T13:20:38;13.20;99.90
10419;DHT22;5256;48.728;9.140;2024-02-14T13:23:04;13.30;99.90
10419;DHT22;5256;48.728;9.140;2024-02-14T13:25:35;13.20;99.90
10419;DHT22;5256;48.728;9.140;2024-02-14T13:28:02;13.10;99.90
10419;DHT22;5256;48.728;9.140;2024-02-14T13:30:27;13.20;99.90
10419;DHT22;5256;48.728;9.140;2024-02-14T13:32:55;13.20;99.90
10419;DHT22;5256;48.728;9.140;2024-02-14T13:35:21;13.20;99.90
10419;DHT22;5256;48.728;9.140;2024-02-14T13:37:47;13.20;99.90
10419;DHT22;5256;48.728;9.140;2024-02-14T13:40:13;13.20;99.90
10419;DHT22;5256;48.728;9.140;2024-02-14T13:42:39;13.20;99.90
10419;DHT22;5256;48.728;9.140;2024-02-14T13:45:05;13.10;99.90
10419;DHT22;5256;48.728;9.140;2024-02-14T13:47:38;13.00;99.90
10419;DHT22;5256;48.728;9.140;2024-02-14T13:50:08;13.10;99.90
10419;DHT22;5256;48.728;9.140;2024-02-14T13:52:35;13.00;99.90
10419;DHT22;5256;48.728;9.140;2024-02-14T13:55:02;13.00;99.90
10419;DHT22;5256;48.728;9.140;2024-02-14T13:57:28;13.00;99.90
10419;DHT22;5256;48.728;9.140;2024-02-14T13:59:55;13.00;99.90
10419;DHT22;5256;48.728;9.140;2024-02-14T14:02:20;12.90;99.90
10419;DHT22;5256;48.728;9.140;2024-02-14T14:04:46;12.90;99.90
10419;DHT22;5256;48.728;9.140;2024-02-14T14:07:13;12.90;99.90
10419;DHT22;5256;48.728;9.140;2024-02-14T14:09:39;12.90;99.90
10419;DHT22;5256;48.728;9.140;2024-02-14T14:12:04;12.90;99.90
10419;DHT22;5256;48.728;9.140;2024-02-14T14:14:30;12.90;99.90
10419;DHT22;5256;48.728;9.140;2024-02-14T14:16:55;12.90;99.90
10419;DHT22;5256;48.728;9.140;2024-02-14T14:19:23;12.90;99.90
10419;DHT22;5256;48.728;9.140;2024-02-14T14:21:48;12.90;99.90
10419;DHT22;5256;48.728;9.140;2024-02-14T14:24:14;13.00;99.90
10419;DHT22;5256;48.728;9.140;2024-02-14T14:26:40;13.10;99.90
10419;DHT22;5256;48.728;9.140;2024-02-14T14:29:06;13.10;99.90
10419;DHT22;5256;48.728;9.140;2024-02-14T14:31:31;13.20;99.90
10419;DHT22;5256;48.728;9.140;2024-02-14T14:33:57;13.30;99.90
10419;DHT22;5256;48.728;9.140;2024-02-14T14:36:22;13.20;99.90
10419;DHT22;5256;48.728;9.140;2024-02-14T14:38:48;13.10;99.90
10419;DHT22;5256;48.728;9.140;2024-02-14T14:41:13;13.10;99.90
10419;DHT22;5256;48.728;9.140;2024-02-14T14:43:40;13.10;99.90
10419;DHT22;5256;48.728;9.140;2024-02-14T14:46:05;13.00;99.90
10419;DHT22;5256;48.728;9.140;2024-02-14T14:48:31;13.00;99.90
10419;DHT22;5256;48.728;9.140;2024-02-14T14:50:57;13.10;99.90
10419;DHT22;5256;48.728;9.140;2024-02-14T14:53:22;13.10;99.90
10419;DHT22;5256;48.728;9.140;2024-02-14T14:58:15;13.00;99.90
10419;DHT22;5256;48.728;9.140;2024-02-14T15:00:41;12.90;99.90
10419;DHT22;5256;48.728;9.140;2024-02-14T15:03:08;12.90;99.90
10419;DHT22;5256;48.728;9.140;2024-02-14T15:05:34;12.80;99.90
10419;DHT22;5256;48.728;9.140;2024-02-14T15:07:59;12.80;99.90
10419;DHT22;5256;48.728;9.140;2024-02-14T15:10:25;12.80;99.90
10419;DHT22;5256;48.728;9.140;2024-02-14T15:12:50;12.80;99.90
10419;DHT22;5256;48.728;9.140;2024-02-14T15:15:16;12.80;99.90
10419;DHT22;5256;48.728;9.140;2024-02-14T15:17:42;12.90;99.90
10419;DHT22;5256;48.728;9.140;2024-02-14T15:20:08;12.90;99.90
10419;DHT22;5256;48.728;9.140;2024-02-14T15:22:34;12.90;99.90
10419;DHT22;5256;48.728;9.140;2024-02-14T15:25:00;12.90;99.90
10419;DHT22;5256;48.728;9.140;2024-02-14T15:27:25;12.90;99.90
10419;DHT22;5256;48.728;9.140;2024-02-14T15:29:52;12.90;99.90
10419;DHT22;5256;48.728;9.140;2024-02-14T15:32:36;13.00;99.90
10419;DHT22;5256;48.728;9.140;2024-02-14T15:35:20;13.00;99.90
10419;DHT22;5256;48.728;9.140;2024-02-14T15:37:46;13.00;99.90
10419;DHT22;5256;48.728;9.140;2024-02-14T15:40:15;13.00;99.90
10419;DHT22;5256;48.728;9.140;2024-02-14T15:42:42;13.00;99.90
10419;DHT22;5256;48.728;9.140;2024-02-14T15:45:08;12.90;99.90
10419;DHT22;5256;48.728;9.140;2024-02-14T15:47:35;12.90;99.90
10419;DHT22;5256;48.728;9.140;2024-02-14T15:50:01;12.90;99.90
10419;DHT22;5256;48.728;9.140;2024-02-14T15:52:26;12.90;99.90